This is the latest recevied weather packets stored in our database for station/object G4KVI. If no packets are shown the sender has not sent any weather packets the latest 10 day(s).
| Time | Temp. | Humidity | Pressure | Rain* | Wind** | Luminosity | Snow |
|---|---|---|---|---|---|---|---|
| 1787488204 | 22.78° C | 36% | 1027.2 hPa | 0 mm | - | 745 W/m² | - |
| 1787487904 | 22.78° C | 35% | 1027.2 hPa | 0 mm | - | 745 W/m² | - |
| 1787487604 | 22.78° C | 35% | 1026.9 hPa | 0 mm | - | 742 W/m² | - |
| 1787487304 | 22.22° C | 37% | 1027.5 hPa | 0 mm | - | 735 W/m² | - |
| 1787487004 | 21.67° C | 38% | 1027.4 hPa | 0 mm | - | 620 W/m² | - |
| 1787486704 | 22.22° C | 36% | 1027.5 hPa | 0 mm | - | 680 W/m² | - |
| 1787486404 | 21.67° C | 36% | 1027.3 hPa | 0 mm | - | 758 W/m² | - |
| 1787486104 | 22.22° C | 35% | 1027.4 hPa | 0 mm | - | 224 W/m² | - |
| 1787485804 | 22.22° C | 36% | 1027.4 hPa | 0 mm | - | 775 W/m² | - |
| 1787485504 | 22.78° C | 35% | 1027.2 hPa | 0 mm | - | 776 W/m² | - |
| 1787485204 | 22.22° C | 39% | 1027.5 hPa | 0 mm | - | 752 W/m² | - |
| 1787484904 | 22.22° C | 38% | 1027.4 hPa | 0 mm | - | 722 W/m² | - |
| 1787484604 | 22.22° C | 38% | 1027.5 hPa | 0 mm | - | 715 W/m² | - |
| 1787484304 | 21.67° C | 41% | 1027.3 hPa | 0 mm | - | 716 W/m² | - |
| 1787484004 | 21.67° C | 40% | 1027.2 hPa | 0 mm | - | 690 W/m² | - |
| 1787483704 | 21.67° C | 41% | 1027.5 hPa | 0 mm | - | 671 W/m² | - |
| 1787483404 | 22.22° C | 41% | 1027.3 hPa | 0 mm | - | 679 W/m² | - |
| 1787483104 | 21.67° C | 45% | 1027.4 hPa | 0 mm | - | 666 W/m² | - |
| 1787482804 | 21.11° C | 46% | 1027.1 hPa | 0 mm | - | 647 W/m² | - |
| 1787482503 | 21.11° C | 45% | 1027.5 hPa | 0 mm | - | 645 W/m² | - |
| 1787482203 | 21.11° C | 46% | 1027.4 hPa | 0 mm | - | 635 W/m² | - |
| 1787481903 | 21.67° C | 44% | 1027.4 hPa | 0 mm | - | 633 W/m² | - |
| 1787481604 | 21.11° C | 46% | 1027.5 hPa | 0 mm | - | 628 W/m² | - |
| 1787481303 | 21.11° C | 46% | 1027.5 hPa | 0 mm | - | 622 W/m² | - |
| 1787481004 | 20.56° C | 49% | 1027.5 hPa | 0 mm | - | 614 W/m² | - |
* Rain latest hour (hover to see other rain measurements)
** Current wind speed in m/s (hover to see current wind gust speed)